Time;durP1;ratioP1;P1;durP2;ratioP2;P2;SDS_P1;SDS_P2;PMS_P1;PMS_P2;Temp;Humidity;BMP_temperature;BMP_pressure;BME280_temperature;BME280_humidity;BME280_pressure;Samples;Min_cycle;Max_cycle;Signal;HPM_P1;HPM_P2
2023/03/24 00:01:45;;;;;;;2.03;1.20;;;11.50;99.90;;;;;;4140074;28;20694;-73
2023/03/24 00:03:50;;;;;;;1.80;1.30;;;11.60;99.90;;;;;;4137989;28;20212;-74
2023/03/24 00:05:57;;;;;;;2.70;1.30;;;11.60;99.90;;;;;;4135785;28;20204;-74
2023/03/24 00:08:01;;;;;;;2.50;0.90;;;11.60;99.90;;;;;;4136377;28;20265;-73
2023/03/24 00:10:03;;;;;;;3.27;1.20;;;11.60;99.90;;;;;;4137625;28;20832;-74
2023/03/24 00:12:05;;;;;;;3.07;1.20;;;11.60;99.90;;;;;;4135906;28;20233;-74
2023/03/24 00:14:11;;;;;;;2.13;1.27;;;11.60;99.90;;;;;;4141632;28;20250;-74
2023/03/24 00:16:15;;;;;;;1.10;0.90;;;11.60;99.90;;;;;;4138302;28;20230;-73
2023/03/24 00:18:21;;;;;;;1.63;1.10;;;11.60;99.90;;;;;;4139541;28;20203;-74
2023/03/24 00:20:25;;;;;;;2.67;1.17;;;11.60;99.90;;;;;;4137543;28;20258;-74
2023/03/24 00:22:28;;;;;;;1.63;1.00;;;11.60;99.90;;;;;;4136915;28;20235;-75
2023/03/24 00:24:31;;;;;;;2.33;1.00;;;11.60;99.90;;;;;;4138204;28;20278;-74
2023/03/24 00:26:33;;;;;;;1.83;1.10;;;11.60;99.90;;;;;;4139255;28;20200;-73
2023/03/24 00:28:36;;;;;;;3.33;1.10;;;11.60;99.90;;;;;;4137014;28;20223;-74
2023/03/24 00:30:41;;;;;;;2.73;1.03;;;11.60;99.90;;;;;;4136235;28;20208;-74
2023/03/24 00:32:45;;;;;;;1.87;1.17;;;11.60;99.90;;;;;;4137787;28;20252;-74
2023/03/24 00:34:48;;;;;;;2.77;1.30;;;11.60;99.90;;;;;;4136019;28;20211;-74
2023/03/24 00:36:52;;;;;;;2.73;1.60;;;11.60;99.90;;;;;;4141133;28;20220;-74
2023/03/24 00:38:54;;;;;;;1.77;1.20;;;11.60;99.90;;;;;;4139402;28;20235;-74
2023/03/24 00:40:57;;;;;;;3.13;1.43;;;11.60;99.90;;;;;;4137500;28;20212;-74
2023/03/24 00:43:00;;;;;;;2.23;1.50;;;11.60;99.90;;;;;;4141732;28;20286;-74
2023/03/24 00:45:03;;;;;;;2.43;1.37;;;11.60;99.90;;;;;;4140994;28;20207;-74
2023/03/24 00:47:06;;;;;;;2.60;1.50;;;11.60;99.90;;;;;;4136727;28;20645;-75
2023/03/24 00:49:10;;;;;;;3.37;1.50;;;11.60;99.90;;;;;;4138839;28;20216;-74
2023/03/24 00:51:12;;;;;;;2.40;1.50;;;11.60;99.90;;;;;;4135517;28;20334;-74
2023/03/24 00:53:17;;;;;;;2.50;1.47;;;11.60;99.90;;;;;;4136919;28;20223;-74
2023/03/24 00:55:21;;;;;;;2.93;1.53;;;11.60;99.90;;;;;;4137176;28;20204;-74
2023/03/24 00:57:24;;;;;;;2.63;1.90;;;11.60;99.90;;;;;;4134890;28;20216;-75
2023/03/24 00:59:28;;;;;;;2.80;1.80;;;11.60;99.90;;;;;;4137700;28;20311;-75
2023/03/24 01:01:33;;;;;;;2.20;1.60;;;11.60;99.90;;;;;;4136121;28;20383;-74
2023/03/24 01:03:42;;;;;;;2.77;1.70;;;11.60;99.90;;;;;;4137430;28;20224;-74
2023/03/24 01:05:46;;;;;;;4.17;1.70;;;11.60;99.90;;;;;;4138615;28;20794;-74
2023/03/24 01:07:50;;;;;;;4.33;1.80;;;11.60;99.90;;;;;;4133754;28;20204;-73
2023/03/24 01:09:57;;;;;;;4.77;1.97;;;11.60;99.90;;;;;;4139095;28;20732;-74
2023/03/24 01:11:59;;;;;;;5.23;2.17;;;11.60;99.90;;;;;;4140013;28;20227;-74
2023/03/24 01:14:01;;;;;;;3.50;1.93;;;11.60;99.90;;;;;;4132840;28;20204;-74
2023/03/24 01:16:03;;;;;;;3.13;1.60;;;11.60;99.90;;;;;;4136877;28;20224;-73
2023/03/24 01:18:08;;;;;;;3.57;2.03;;;11.60;99.90;;;;;;4138715;28;20235;-73
2023/03/24 01:20:11;;;;;;;3.20;2.00;;;11.60;99.90;;;;;;4134235;28;20848;-74
2023/03/24 01:22:13;;;;;;;2.83;2.10;;;11.60;99.90;;;;;;4136877;28;20224;-75
2023/03/24 01:24:15;;;;;;;2.90;2.07;;;11.60;99.90;;;;;;4140131;28;20227;-74
2023/03/24 01:26:18;;;;;;;2.73;1.97;;;11.60;99.90;;;;;;4136581;28;20534;-73
2023/03/24 01:28:23;;;;;;;4.20;2.10;;;11.50;99.90;;;;;;4151533;28;20299;-73
2023/03/24 01:30:27;;;;;;;3.20;2.07;;;11.50;99.90;;;;;;4138996;28;20852;-75
2023/03/24 01:32:29;;;;;;;4.23;2.50;;;11.50;99.90;;;;;;4138629;28;20601;-72
2023/03/24 01:34:31;;;;;;;4.30;2.30;;;11.40;99.90;;;;;;4132053;28;20588;-74
2023/03/24 01:36:34;;;;;;;4.37;2.30;;;11.40;99.90;;;;;;4137778;28;20228;-75
2023/03/24 01:38:37;;;;;;;5.07;2.50;;;11.40;99.90;;;;;;4138191;28;20243;-74
2023/03/24 01:40:41;;;;;;;3.30;2.40;;;11.40;99.90;;;;;;4137555;28;20748;-73
2023/03/24 01:42:45;;;;;;;3.67;2.50;;;11.40;99.90;;;;;;4136160;28;20240;-75
2023/03/24 01:44:49;;;;;;;5.27;2.70;;;11.30;99.90;;;;;;4136698;28;20208;-73
2023/03/24 01:46:51;;;;;;;4.13;2.17;;;11.40;99.90;;;;;;4136943;28;20210;-75
2023/03/24 01:48:57;;;;;;;5.13;2.67;;;11.40;99.90;;;;;;4136045;28;20212;-74
2023/03/24 01:51:04;;;;;;;8.80;2.40;;;11.40;99.90;;;;;;4135722;28;20225;-73
2023/03/24 01:53:08;;;;;;;5.47;2.53;;;11.40;99.90;;;;;;4139511;28;20287;-74
2023/03/24 01:55:17;;;;;;;3.87;2.50;;;11.40;99.90;;;;;;4137009;28;20219;-74
2023/03/24 01:57:24;;;;;;;4.87;2.30;;;11.40;99.90;;;;;;4134076;28;20232;-75
2023/03/24 01:59:30;;;;;;;5.63;2.80;;;11.40;99.90;;;;;;4136200;28;20228;-75
2023/03/24 02:01:32;;;;;;;3.93;2.63;;;11.40;99.90;;;;;;4138174;28;20242;-75
2023/03/24 02:03:37;;;;;;;5.17;2.97;;;11.40;99.90;;;;;;4135319;28;20283;-74
2023/03/24 02:05:41;;;;;;;5.63;2.73;;;11.40;99.90;;;;;;4136222;28;20757;-74
2023/03/24 02:07:51;;;;;;;3.17;2.30;;;11.50;99.90;;;;;;4136096;28;21742;-75
2023/03/24 02:09:53;;;;;;;4.67;2.57;;;11.50;99.90;;;;;;4138571;28;20211;-74
2023/03/24 02:11:55;;;;;;;5.33;2.60;;;11.50;99.90;;;;;;4136355;28;20844;-75
2023/03/24 02:13:58;;;;;;;3.97;2.47;;;11.50;99.90;;;;;;4136291;28;20670;-75
2023/03/24 02:16:19;;;;;;;7.70;2.47;;;11.50;99.90;;;;;;4135300;28;20251;-74
2023/03/24 02:18:28;;;;;;;6.27;2.60;;;11.60;99.90;;;;;;4135109;28;20266;-74
2023/03/24 02:20:51;;;;;;;3.90;2.30;;;11.60;99.90;;;;;;4138067;28;20289;-74
2023/03/24 02:23:28;;;;;;;5.23;3.10;;;11.60;99.90;;;;;;4136797;28;20220;-75
2023/03/24 02:26:21;;;;;;;4.93;2.60;;;11.60;99.90;;;;;;4115247;28;20219;-74
2023/03/24 02:28:39;;;;;;;4.37;2.70;;;11.60;99.90;;;;;;4134351;28;20243;-75
2023/03/24 02:31:16;;;;;;;5.03;2.70;;;11.60;99.90;;;;;;4137717;28;20238;-74
2023/03/24 02:33:58;;;;;;;4.00;2.50;;;11.60;99.90;;;;;;4134784;28;20306;-74
2023/03/24 02:36:24;;;;;;;7.67;2.90;;;11.60;99.90;;;;;;4136620;28;20224;-75
2023/03/24 02:38:44;;;;;;;3.70;2.57;;;11.50;99.90;;;;;;4129506;28;20219;-74
2023/03/24 02:40:54;;;;;;;5.17;2.87;;;11.50;99.90;;;;;;4137004;28;20671;-74
2023/03/24 02:43:11;;;;;;;6.67;3.10;;;11.30;99.90;;;;;;4134205;28;20621;-75
2023/03/24 02:45:24;;;;;;;6.30;3.00;;;11.20;99.90;;;;;;4137256;28;20215;-75
2023/03/24 02:47:31;;;;;;;5.93;3.10;;;11.20;99.90;;;;;;4139747;28;20235;-76
2023/03/24 02:49:44;;;;;;;8.43;3.50;;;11.10;99.90;;;;;;4140760;28;20215;-76
2023/03/24 02:51:58;;;;;;;5.60;3.43;;;11.00;99.90;;;;;;4141775;28;20241;-75
2023/03/24 02:54:07;;;;;;;4.80;2.93;;;10.90;99.90;;;;;;4139802;28;20220;-75
2023/03/24 02:56:15;;;;;;;5.50;3.37;;;10.80;99.90;;;;;;4139286;28;20247;-74
2023/03/24 02:58:21;;;;;;;8.83;3.50;;;10.80;99.90;;;;;;4137425;28;20208;-75
2023/03/24 03:00:29;;;;;;;7.90;3.87;;;10.80;99.90;;;;;;4141018;28;20786;-74
2023/03/24 03:02:34;;;;;;;5.60;3.87;;;10.80;99.90;;;;;;4139218;28;20247;-75
2023/03/24 03:04:45;;;;;;;8.27;3.93;;;10.80;99.90;;;;;;4138744;28;20200;-75
2023/03/24 03:06:53;;;;;;;6.10;3.87;;;10.80;99.90;;;;;;4138822;28;20250;-74
2023/03/24 03:08:58;;;;;;;6.33;3.83;;;10.70;99.90;;;;;;4140093;28;20222;-74
2023/03/24 03:11:03;;;;;;;8.07;4.23;;;10.70;99.90;;;;;;4138286;28;20215;-74
2023/03/24 03:13:10;;;;;;;7.17;3.83;;;10.70;99.90;;;;;;4140765;28;20239;-75
2023/03/24 03:15:17;;;;;;;8.73;4.10;;;10.70;99.90;;;;;;4138307;28;20218;-74
2023/03/24 03:17:24;;;;;;;7.07;3.90;;;10.70;99.90;;;;;;4138839;28;20234;-75
2023/03/24 03:19:33;;;;;;;6.40;3.70;;;10.70;99.90;;;;;;4135798;28;20687;-72
2023/03/24 03:21:39;;;;;;;7.10;4.10;;;10.70;99.90;;;;;;4143030;28;20946;-73
2023/03/24 03:23:46;;;;;;;6.37;3.73;;;10.70;99.90;;;;;;4139700;28;20215;-74
2023/03/24 03:25:52;;;;;;;9.40;3.80;;;10.70;99.90;;;;;;4139192;28;20277;-74
2023/03/24 03:27:57;;;;;;;8.03;4.10;;;10.70;99.90;;;;;;4140579;28;20845;-74
2023/03/24 03:30:06;;;;;;;8.03;3.87;;;10.70;99.90;;;;;;4143727;28;20217;-74
2023/03/24 03:32:13;;;;;;;7.57;3.90;;;10.70;99.90;;;;;;4138880;28;20234;-75
2023/03/24 03:34:22;;;;;;;7.80;3.60;;;10.70;99.90;;;;;;4136415;28;20217;-74
2023/03/24 03:36:29;;;;;;;7.40;4.27;;;10.80;99.90;;;;;;4135428;28;20243;-72
2023/03/24 03:38:38;;;;;;;6.50;4.40;;;10.70;99.90;;;;;;4136524;28;20665;-75
2023/03/24 03:40:46;;;;;;;7.57;3.70;;;10.70;99.90;;;;;;4139405;28;20208;-73
2023/03/24 03:42:50;;;;;;;7.43;4.13;;;10.70;99.90;;;;;;4137208;28;20235;-74
2023/03/24 03:44:52;;;;;;;7.23;3.80;;;10.90;99.90;;;;;;4152131;28;20661;-73
2023/03/24 03:46:56;;;;;;;8.57;4.30;;;10.80;99.90;;;;;;4139911;28;20207;-74
2023/03/24 03:48:58;;;;;;;6.17;3.90;;;10.80;99.90;;;;;;4152237;28;20210;-74
2023/03/24 03:51:00;;;;;;;6.47;4.03;;;10.80;99.90;;;;;;4140476;28;20208;-74
2023/03/24 03:53:02;;;;;;;7.40;3.60;;;10.80;99.90;;;;;;4139451;28;20228;-75
2023/03/24 03:55:06;;;;;;;5.73;3.10;;;10.80;99.90;;;;;;4138022;28;20208;-74
2023/03/24 03:57:10;;;;;;;6.10;3.40;;;10.80;99.90;;;;;;4137309;28;20239;-74
2023/03/24 03:59:24;;;;;;;9.23;3.80;;;10.80;99.90;;;;;;4137407;28;20215;-73
2023/03/24 04:01:29;;;;;;;5.57;3.73;;;10.80;99.90;;;;;;4134654;28;20218;-73
2023/03/24 04:03:50;;;;;;;5.33;3.07;;;10.80;99.90;;;;;;4136347;28;20615;-74
2023/03/24 04:06:00;;;;;;;4.63;3.30;;;10.80;99.90;;;;;;4139515;28;20219;-73
2023/03/24 04:08:22;;;;;;;5.90;3.43;;;10.90;99.90;;;;;;4151041;28;20704;-75
2023/03/24 04:10:32;;;;;;;5.83;3.30;;;10.90;99.90;;;;;;4135909;28;20211;-73
2023/03/24 04:12:56;;;;;;;7.87;3.63;;;10.90;99.90;;;;;;4135249;28;20275;-73
2023/03/24 04:15:16;;;;;;;4.90;3.27;;;10.90;99.90;;;;;;4143494;28;20235;-73
2023/03/24 04:17:32;;;;;;;5.23;2.90;;;10.90;99.90;;;;;;4141539;28;20238;-73
2023/03/24 04:19:49;;;;;;;3.37;2.53;;;10.90;99.90;;;;;;4140219;28;20284;-73
2023/03/24 04:22:04;;;;;;;4.87;3.00;;;10.90;99.90;;;;;;4140247;28;20236;-73
2023/03/24 04:24:26;;;;;;;4.63;3.00;;;10.90;99.90;;;;;;4139240;28;20815;-73
2023/03/24 04:26:35;;;;;;;4.77;2.70;;;11.00;99.90;;;;;;4138655;28;20211;-73
2023/03/24 04:28:46;;;;;;;6.17;3.20;;;11.00;99.90;;;;;;4137181;28;20215;-71
2023/03/24 04:30:52;;;;;;;5.83;3.37;;;10.90;99.90;;;;;;4154317;28;20199;-72
2023/03/24 04:32:58;;;;;;;5.57;2.93;;;11.00;99.90;;;;;;4133962;28;20276;-71
2023/03/24 04:35:06;;;;;;;3.77;2.80;;;11.00;99.90;;;;;;4138830;28;20757;-72
2023/03/24 04:37:12;;;;;;;4.80;2.60;;;11.00;99.90;;;;;;4138625;28;20274;-73
2023/03/24 04:39:24;;;;;;;5.67;3.03;;;11.00;99.90;;;;;;4135214;28;20826;-73
2023/03/24 04:41:28;;;;;;;6.03;3.10;;;11.00;99.90;;;;;;4139371;28;20211;-73
2023/03/24 04:43:36;;;;;;;7.20;3.00;;;11.00;99.90;;;;;;4137615;28;20207;-73
2023/03/24 04:45:38;;;;;;;4.37;2.97;;;11.00;99.90;;;;;;4137048;28;20285;-74
2023/03/24 04:47:45;;;;;;;4.60;3.00;;;11.00;99.90;;;;;;4136053;28;20287;-72
2023/03/24 04:49:47;;;;;;;4.90;2.97;;;11.00;99.90;;;;;;4141799;28;20213;-75
2023/03/24 04:51:50;;;;;;;5.23;3.00;;;11.10;99.90;;;;;;4139092;28;20307;-80
2023/03/24 04:53:52;;;;;;;5.40;2.80;;;11.00;99.90;;;;;;4140510;28;20208;-75
2023/03/24 04:56:01;;;;;;;6.30;2.83;;;11.00;99.90;;;;;;4137520;28;20611;-75
2023/03/24 04:58:02;;;;;;;5.00;2.90;;;11.10;99.90;;;;;;4129671;28;20705;-75
2023/03/24 05:00:07;;;;;;;5.17;2.80;;;11.10;99.90;;;;;;4139074;28;20204;-75
2023/03/24 05:02:09;;;;;;;4.23;2.90;;;11.10;99.90;;;;;;4138673;28;20254;-74
2023/03/24 05:04:11;;;;;;;5.53;2.70;;;11.10;99.90;;;;;;4134666;28;20219;-72
2023/03/24 05:06:16;;;;;;;4.73;3.17;;;11.10;99.90;;;;;;4135189;28;20211;-74
2023/03/24 05:08:20;;;;;;;4.87;3.00;;;11.10;99.90;;;;;;4137125;28;20216;-74
2023/03/24 05:10:22;;;;;;;4.93;2.53;;;11.20;99.90;;;;;;4136487;28;20216;-74
2023/03/24 05:12:24;;;;;;;4.00;2.83;;;11.20;99.90;;;;;;4136922;28;20239;-74
2023/03/24 05:14:26;;;;;;;4.60;2.20;;;11.20;99.90;;;;;;4138979;28;20727;-75
2023/03/24 05:16:28;;;;;;;3.93;2.67;;;11.20;99.90;;;;;;4139512;28;20266;-74
2023/03/24 05:18:30;;;;;;;5.73;2.90;;;11.20;99.90;;;;;;4138809;28;20242;-74
2023/03/24 05:20:34;;;;;;;5.80;2.70;;;11.20;99.90;;;;;;4139732;28;20220;-74
2023/03/24 05:22:37;;;;;;;4.30;2.70;;;11.30;99.90;;;;;;4138592;28;20228;-74
2023/03/24 05:24:40;;;;;;;4.43;2.50;;;11.30;99.90;;;;;;4139204;28;20208;-75
2023/03/24 05:26:42;;;;;;;4.70;2.63;;;11.30;99.90;;;;;;4137791;28;20228;-72
2023/03/24 05:28:44;;;;;;;7.43;3.70;;;11.30;99.90;;;;;;4138385;28;20235;-75
2023/03/24 05:30:46;;;;;;;5.87;3.10;;;11.30;99.90;;;;;;4136090;28;20289;-74
2023/03/24 05:32:48;;;;;;;5.77;2.90;;;11.40;99.90;;;;;;4154567;28;20223;-74
2023/03/24 05:34:50;;;;;;;4.03;2.80;;;11.40;99.90;;;;;;4137254;28;20243;-74
2023/03/24 05:36:55;;;;;;;3.97;2.80;;;11.40;99.90;;;;;;4142039;28;20860;-75
2023/03/24 05:38:57;;;;;;;5.33;2.80;;;11.30;99.90;;;;;;4135725;28;20250;-74
2023/03/24 05:41:01;;;;;;;3.73;2.60;;;11.40;99.90;;;;;;4139829;28;20232;-75
2023/03/24 05:43:03;;;;;;;5.73;3.20;;;11.40;99.90;;;;;;4135878;28;20228;-74
2023/03/24 05:45:06;;;;;;;4.73;3.00;;;11.40;99.90;;;;;;4137495;28;20222;-75
2023/03/24 05:47:08;;;;;;;4.20;2.70;;;11.40;99.90;;;;;;4139191;28;20278;-76
2023/03/24 05:49:10;;;;;;;3.90;2.57;;;11.50;99.90;;;;;;4138286;28;20235;-76
2023/03/24 05:51:12;;;;;;;4.70;2.80;;;11.50;99.90;;;;;;4135361;28;20201;-75
2023/03/24 05:53:14;;;;;;;5.30;2.90;;;11.50;99.90;;;;;;4135416;28;20258;-75
2023/03/24 05:55:18;;;;;;;4.23;2.53;;;11.30;99.90;;;;;;4136436;28;20214;-74
2023/03/24 05:57:21;;;;;;;4.97;2.77;;;11.50;99.90;;;;;;4134724;28;20278;-75
2023/03/24 05:59:23;;;;;;;4.37;2.80;;;11.60;99.90;;;;;;4135182;28;20299;-72
2023/03/24 06:01:27;;;;;;;6.23;2.60;;;11.50;99.90;;;;;;4130190;28;20218;-76
2023/03/24 06:03:32;;;;;;;6.37;3.10;;;11.60;99.90;;;;;;4140541;28;20267;-77
2023/03/24 06:05:34;;;;;;;4.17;2.67;;;11.60;99.90;;;;;;4143377;28;20296;-78
2023/03/24 06:07:37;;;;;;;3.73;2.73;;;11.60;99.90;;;;;;4139848;28;20298;-77
2023/03/24 06:09:41;;;;;;;6.47;4.30;;;11.70;99.90;;;;;;4138502;28;20203;-76
2023/03/24 06:11:43;;;;;;;9.93;5.40;;;11.70;99.90;;;;;;4137519;28;20221;-75
2023/03/24 06:13:46;;;;;;;5.77;3.40;;;11.70;99.90;;;;;;4137256;28;20231;-75
2023/03/24 06:15:48;;;;;;;5.97;3.00;;;11.80;99.90;;;;;;4136660;28;20748;-73
2023/03/24 06:17:53;;;;;;;5.03;2.80;;;11.80;99.90;;;;;;4139194;28;20315;-74
2023/03/24 06:20:01;;;;;;;3.60;2.30;;;11.90;99.90;;;;;;4138096;28;20290;-75
2023/03/24 06:22:05;;;;;;;4.40;2.97;;;11.90;99.90;;;;;;4138769;28;20309;-75
2023/03/24 06:24:07;;;;;;;4.47;2.60;;;11.90;99.90;;;;;;4138775;28;20283;-75
2023/03/24 06:26:11;;;;;;;5.80;2.37;;;11.90;99.90;;;;;;4138436;28;20200;-75
2023/03/24 06:28:13;;;;;;;5.20;3.10;;;12.00;99.90;;;;;;4135993;28;20247;-75
2023/03/24 06:30:17;;;;;;;4.43;3.23;;;12.00;99.90;;;;;;4137159;28;20585;-75
2023/03/24 06:32:20;;;;;;;6.13;2.93;;;12.00;99.90;;;;;;4139127;28;20227;-75
2023/03/24 06:34:23;;;;;;;5.07;2.70;;;12.10;99.90;;;;;;4137813;28;20281;-75
2023/03/24 06:36:25;;;;;;;3.63;2.53;;;12.10;99.90;;;;;;4136374;28;20227;-75
2023/03/24 06:38:27;;;;;;;6.20;3.07;;;12.10;99.90;;;;;;4136755;28;20900;-73
2023/03/24 06:40:30;;;;;;;3.87;2.60;;;12.10;99.90;;;;;;4135509;28;20684;-75
2023/03/24 06:42:32;;;;;;;3.93;2.70;;;12.20;99.90;;;;;;4143027;28;20346;-75
2023/03/24 06:44:34;;;;;;;5.47;2.83;;;12.20;99.90;;;;;;4136942;28;20320;-75
2023/03/24 06:46:39;;;;;;;5.33;2.43;;;12.20;99.90;;;;;;4140400;28;20782;-75
2023/03/24 06:48:41;;;;;;;4.20;2.60;;;12.30;99.90;;;;;;4138974;28;20228;-74
2023/03/24 06:50:43;;;;;;;8.47;3.60;;;12.30;99.90;;;;;;4136902;28;20675;-74
2023/03/24 06:52:44;;;;;;;6.30;3.60;;;12.30;99.90;;;;;;4149580;28;20256;-77
2023/03/24 06:54:46;;;;;;;5.60;2.87;;;12.30;99.90;;;;;;4136190;28;20203;-75
2023/03/24 06:56:48;;;;;;;4.07;2.97;;;12.30;99.90;;;;;;4135754;28;20240;-75
2023/03/24 06:58:51;;;;;;;4.83;3.10;;;12.40;99.90;;;;;;4135609;28;20223;-74
2023/03/24 07:00:54;;;;;;;5.37;2.63;;;12.40;99.90;;;;;;4138491;28;20232;-76
2023/03/24 07:02:57;;;;;;;4.23;2.80;;;12.40;99.90;;;;;;4135752;28;20728;-75
2023/03/24 07:04:59;;;;;;;4.80;2.97;;;12.40;99.90;;;;;;4135694;28;20204;-76
2023/03/24 07:07:02;;;;;;;4.37;2.60;;;12.50;99.90;;;;;;4139004;28;20762;-75
2023/03/24 07:09:07;;;;;;;4.33;2.70;;;12.50;99.90;;;;;;4137063;28;20200;-75
2023/03/24 07:11:09;;;;;;;6.63;2.80;;;12.60;99.90;;;;;;4135049;28;20233;-74
2023/03/24 07:13:11;;;;;;;4.50;2.43;;;12.60;99.90;;;;;;4133829;28;20224;-75
2023/03/24 07:15:14;;;;;;;7.50;2.67;;;12.70;99.90;;;;;;4136688;28;20209;-74
2023/03/24 07:17:16;;;;;;;4.30;2.30;;;12.70;99.90;;;;;;4137365;28;20218;-75
2023/03/24 07:19:21;;;;;;;4.20;2.57;;;12.80;99.90;;;;;;4139436;28;20303;-74
2023/03/24 07:21:23;;;;;;;2.77;2.03;;;12.90;99.90;;;;;;4138353;28;20214;-75
2023/03/24 07:23:26;;;;;;;4.83;2.20;;;12.90;99.90;;;;;;4135277;28;20328;-75
2023/03/24 07:25:28;;;;;;;4.83;2.80;;;12.90;99.90;;;;;;4137229;28;20212;-74
2023/03/24 07:27:31;;;;;;;3.43;2.20;;;12.90;99.90;;;;;;4136340;28;20208;-73
2023/03/24 07:29:33;;;;;;;4.43;2.17;;;12.90;99.90;;;;;;4137992;28;20204;-76
2023/03/24 07:31:36;;;;;;;4.23;2.50;;;12.90;99.90;;;;;;4139268;28;20241;-74
2023/03/24 07:33:38;;;;;;;4.53;2.37;;;12.90;99.90;;;;;;4139892;28;20286;-75
2023/03/24 07:35:43;;;;;;;5.80;2.40;;;13.00;99.90;;;;;;4137571;28;20237;-74
2023/03/24 07:37:44;;;;;;;4.47;2.70;;;13.10;99.90;;;;;;4141322;28;20239;-74
2023/03/24 07:39:46;;;;;;;3.50;2.60;;;13.10;99.90;;;;;;4139558;28;20255;-74
2023/03/24 07:41:48;;;;;;;7.23;2.77;;;13.20;99.90;;;;;;4140678;28;20237;-74
2023/03/24 07:43:50;;;;;;;5.07;2.40;;;13.20;99.90;;;;;;4154086;28;20270;-73
2023/03/24 07:45:52;;;;;;;3.70;2.43;;;13.30;99.90;;;;;;4140643;28;20277;-74
2023/03/24 07:47:56;;;;;;;3.17;2.20;;;13.40;99.90;;;;;;4153581;28;20303;-75
2023/03/24 07:49:57;;;;;;;4.27;2.30;;;13.40;99.90;;;;;;4142759;28;20645;-75
2023/03/24 07:52:05;;;;;;;3.83;1.73;;;13.50;99.90;;;;;;4140707;28;20226;-74
2023/03/24 07:54:07;;;;;;;5.30;2.20;;;13.50;99.90;;;;;;4140864;28;20225;-74
2023/03/24 07:56:09;;;;;;;4.63;2.30;;;13.60;99.90;;;;;;4139057;28;20210;-76
2023/03/24 07:58:10;;;;;;;3.30;2.00;;;13.60;99.90;;;;;;4139414;28;20252;-75
2023/03/24 08:00:16;;;;;;;4.00;2.30;;;13.70;99.90;;;;;;4138858;28;20249;-76
2023/03/24 08:02:20;;;;;;;3.13;1.97;;;13.70;99.90;;;;;;4144571;28;20727;-74
2023/03/24 08:04:22;;;;;;;3.80;1.80;;;13.80;99.90;;;;;;4137643;28;20776;-74
2023/03/24 08:06:24;;;;;;;3.00;1.80;;;13.80;99.90;;;;;;4136188;28;20213;-74
2023/03/24 08:08:27;;;;;;;3.20;2.17;;;13.80;99.90;;;;;;4135948;28;20229;-74
2023/03/24 08:10:31;;;;;;;4.27;2.40;;;13.90;99.90;;;;;;4152835;28;20210;-74
2023/03/24 08:12:33;;;;;;;3.80;2.00;;;13.80;99.90;;;;;;4155106;28;20846;-75
2023/03/24 08:14:34;;;;;;;3.37;2.40;;;13.90;99.90;;;;;;4139284;28;20206;-75
2023/03/24 08:16:37;;;;;;;4.87;2.40;;;13.90;99.90;;;;;;4138148;28;20204;-76
2023/03/24 08:18:39;;;;;;;6.93;2.10;;;13.90;99.90;;;;;;4140443;28;20236;-76
2023/03/24 08:20:41;;;;;;;2.73;1.70;;;13.90;99.90;;;;;;4141253;28;20203;-75
2023/03/24 08:22:48;;;;;;;2.50;1.87;;;13.90;99.90;;;;;;4138780;28;20240;-75
2023/03/24 08:24:51;;;;;;;2.73;1.80;;;14.00;99.90;;;;;;4136939;28;20205;-75
2023/03/24 08:26:57;;;;;;;3.90;1.80;;;14.10;99.90;;;;;;4136562;28;20213;-74
2023/03/24 08:28:59;;;;;;;5.70;1.70;;;14.10;99.90;;;;;;4139632;28;20226;-75
2023/03/24 08:31:01;;;;;;;3.60;1.80;;;14.20;99.90;;;;;;4139413;28;20891;-73
2023/03/24 08:33:03;;;;;;;2.47;2.00;;;14.20;99.90;;;;;;4143050;28;20937;-75
2023/03/24 08:35:06;;;;;;;4.23;2.03;;;14.30;99.90;;;;;;4136521;28;20258;-75
2023/03/24 08:37:07;;;;;;;3.23;1.60;;;14.40;99.90;;;;;;4137129;28;20258;-75
2023/03/24 08:39:10;;;;;;;2.00;1.53;;;14.40;99.90;;;;;;4140660;28;20303;-75
2023/03/24 08:41:13;;;;;;;3.47;1.87;;;14.40;99.90;;;;;;4135887;28;20200;-75
2023/03/24 08:43:16;;;;;;;5.73;1.90;;;14.50;99.90;;;;;;4144581;28;20233;-75
2023/03/24 08:45:20;;;;;;;1.40;1.30;;;14.60;99.90;;;;;;4138234;28;20289;-76
2023/03/24 08:47:22;;;;;;;2.10;1.33;;;14.70;99.90;;;;;;4138824;28;20293;-76
2023/03/24 08:49:24;;;;;;;2.20;1.40;;;14.70;99.90;;;;;;4137966;28;20716;-75
2023/03/24 08:51:27;;;;;;;1.80;1.40;;;14.70;99.90;;;;;;4135675;28;20211;-76
2023/03/24 08:53:28;;;;;;;2.03;1.30;;;14.70;99.90;;;;;;4134245;28;20282;-75
2023/03/24 08:55:31;;;;;;;1.87;1.13;;;14.80;99.90;;;;;;4139174;28;20702;-77
2023/03/24 08:57:34;;;;;;;3.03;0.97;;;14.80;99.90;;;;;;4135345;28;20675;-74
2023/03/24 08:59:36;;;;;;;2.17;1.30;;;14.80;99.90;;;;;;4138564;28;20227;-74
2023/03/24 09:01:38;;;;;;;2.10;1.13;;;14.90;99.90;;;;;;4137925;28;20211;-74
2023/03/24 09:03:40;;;;;;;2.97;1.27;;;15.00;99.90;;;;;;4139099;28;20216;-75
2023/03/24 09:05:42;;;;;;;2.10;1.30;;;15.10;99.90;;;;;;4137550;28;20846;-74
2023/03/24 09:07:45;;;;;;;3.20;1.37;;;15.20;99.90;;;;;;4139732;28;20204;-74
2023/03/24 09:09:47;;;;;;;1.67;1.20;;;15.20;99.90;;;;;;4137708;28;20948;-72
2023/03/24 09:11:49;;;;;;;2.13;1.30;;;15.30;99.90;;;;;;4136684;28;20243;-74
2023/03/24 09:13:52;;;;;;;3.50;1.27;;;15.40;99.90;;;;;;4138280;28;20813;-75
2023/03/24 09:16:00;;;;;;;2.60;1.40;;;15.40;99.90;;;;;;4135692;28;20235;-75
2023/03/24 09:18:02;;;;;;;1.90;1.13;;;15.40;99.90;;;;;;4137703;28;20787;-75
2023/03/24 09:20:07;;;;;;;2.20;1.10;;;15.50;99.90;;;;;;4150261;28;20323;-75
2023/03/24 09:22:09;;;;;;;1.33;1.10;;;15.50;99.90;;;;;;4136725;28;20230;-75
2023/03/24 09:24:11;;;;;;;1.40;1.00;;;15.50;99.90;;;;;;4137373;28;20201;-75
2023/03/24 09:26:13;;;;;;;2.10;1.27;;;15.50;99.90;;;;;;4136201;28;20236;-75
2023/03/24 09:28:15;;;;;;;1.37;1.20;;;15.50;99.90;;;;;;4136836;28;20212;-74
2023/03/24 09:30:18;;;;;;;2.80;1.17;;;15.60;99.90;;;;;;4137644;28;20208;-74
2023/03/24 09:32:21;;;;;;;2.13;1.10;;;15.60;99.90;;;;;;4136374;28;20290;-75
2023/03/24 09:34:24;;;;;;;1.10;0.90;;;15.70;99.90;;;;;;4137420;28;20243;-74
2023/03/24 09:36:26;;;;;;;1.10;0.93;;;15.80;99.90;;;;;;4137834;28;20303;-75
2023/03/24 09:38:28;;;;;;;2.23;1.00;;;15.80;99.90;;;;;;4137223;28;20219;-74
2023/03/24 09:40:32;;;;;;;3.90;1.30;;;15.90;99.90;;;;;;4141067;28;20560;-74
2023/03/24 09:42:37;;;;;;;1.50;1.10;;;15.90;99.90;;;;;;4137766;28;20251;-75
2023/03/24 09:44:43;;;;;;;1.27;1.07;;;16.00;99.90;;;;;;4141379;28;20235;-74
2023/03/24 09:46:51;;;;;;;2.33;1.10;;;16.00;99.90;;;;;;4137414;28;20212;-75
2023/03/24 09:48:56;;;;;;;1.80;1.00;;;16.10;99.90;;;;;;4138716;28;20208;-75
2023/03/24 09:51:01;;;;;;;2.07;1.27;;;16.20;99.90;;;;;;4138651;28;20243;-73
2023/03/24 09:53:07;;;;;;;1.80;1.30;;;16.30;99.90;;;;;;4136774;28;20225;-75
2023/03/24 09:55:13;;;;;;;1.13;1.00;;;16.40;99.90;;;;;;4137714;28;20224;-75
2023/03/24 09:57:21;;;;;;;1.67;1.07;;;16.50;99.90;;;;;;4135280;28;20684;-75
2023/03/24 09:59:32;;;;;;;1.30;1.07;;;16.60;99.90;;;;;;4142361;28;20252;-73
2023/03/24 10:01:35;;;;;;;1.30;1.00;;;16.60;99.90;;;;;;4135180;28;20732;-74
2023/03/24 10:03:39;;;;;;;1.70;1.20;;;16.60;99.90;;;;;;4137897;28;20305;-73
2023/03/24 10:05:45;;;;;;;1.37;1.00;;;16.60;99.90;;;;;;4139396;28;20574;-75
2023/03/24 10:07:52;;;;;;;1.60;1.23;;;16.60;99.90;;;;;;4152112;28;20218;-75
2023/03/24 10:09:58;;;;;;;1.23;1.03;;;16.60;99.90;;;;;;4138099;28;20226;-74
2023/03/24 10:12:14;;;;;;;2.00;1.10;;;16.70;99.90;;;;;;4135011;28;20718;-73
2023/03/24 10:14:28;;;;;;;2.43;1.03;;;16.70;99.90;;;;;;4137842;28;20235;-75
2023/03/24 10:16:36;;;;;;;3.20;1.10;;;16.70;99.90;;;;;;4141016;28;20214;-75
2023/03/24 10:18:46;;;;;;;2.10;1.10;;;16.80;99.90;;;;;;4137278;28;20251;-74
2023/03/24 10:20:54;;;;;;;1.30;0.97;;;16.80;99.90;;;;;;4144284;28;20212;-75
2023/03/24 10:23:01;;;;;;;3.03;1.10;;;16.80;99.90;;;;;;4149726;28;20607;-74
2023/03/24 10:25:08;;;;;;;2.77;1.10;;;16.80;99.90;;;;;;4135021;28;20290;-74
2023/03/24 10:27:17;;;;;;;3.30;1.20;;;16.90;99.90;;;;;;4135354;28;20215;-74
2023/03/24 10:29:25;;;;;;;1.67;1.13;;;16.90;99.90;;;;;;4137860;28;20210;-75
2023/03/24 10:31:29;;;;;;;2.40;1.43;;;16.90;99.90;;;;;;4136183;28;20217;-75
2023/03/24 10:33:31;;;;;;;2.10;1.07;;;16.90;99.90;;;;;;4137516;28;20293;-75
2023/03/24 10:35:37;;;;;;;2.00;1.10;;;17.00;99.90;;;;;;4137056;28;20260;-75
2023/03/24 10:37:39;;;;;;;1.90;0.93;;;17.00;99.90;;;;;;4136295;28;20692;-75
2023/03/24 10:39:42;;;;;;;2.87;1.10;;;17.10;99.90;;;;;;4136589;28;20258;-75
2023/03/24 10:41:44;;;;;;;1.93;1.30;;;17.20;99.90;;;;;;4139372;28;20206;-78
2023/03/24 10:43:48;;;;;;;4.60;1.07;;;17.30;99.90;;;;;;4133472;28;20219;-76
2023/03/24 10:45:52;;;;;;;1.80;1.20;;;17.40;99.90;;;;;;4136747;28;20210;-77
2023/03/24 10:47:58;;;;;;;2.60;1.20;;;17.40;99.90;;;;;;4131968;28;20235;-77
2023/03/24 10:50:02;;;;;;;1.87;1.13;;;17.50;99.90;;;;;;4135071;28;20239;-73
2023/03/24 10:52:09;;;;;;;3.63;1.00;;;17.50;99.90;;;;;;4136768;28;20239;-73
2023/03/24 10:54:15;;;;;;;1.90;0.90;;;17.40;99.90;;;;;;4136957;28;20238;-74